createdAt,value
2022-08-08T00:02:03.715Z,16.68
2022-08-08T00:04:49.471Z,16.73
2022-08-08T00:07:30.096Z,16.75
2022-08-08T00:10:07.283Z,16.67
2022-08-08T00:12:48.443Z,16.38
2022-08-08T00:15:57.560Z,16.46
2022-08-08T00:18:23.593Z,16.43
2022-08-08T00:21:00.690Z,16.66
2022-08-08T00:23:47.607Z,16.65
2022-08-08T00:26:29.399Z,16.75
2022-08-08T00:29:08.089Z,16.71
2022-08-08T00:32:16.255Z,16.63
2022-08-08T00:35:18.599Z,16.55
2022-08-08T00:38:31.248Z,16.52
2022-08-08T00:42:08.073Z,16.45
2022-08-08T00:45:03.962Z,16.37
2022-08-08T00:48:29.290Z,16.20
2022-08-08T00:51:43.482Z,16.23
2022-08-08T00:54:45.787Z,16.06
2022-08-08T00:57:58.351Z,16.12
2022-08-08T01:00:35.908Z,16.02
2022-08-08T01:04:00.776Z,16.06
2022-08-08T01:07:06.243Z,16.01
2022-08-08T01:10:17.698Z,16.11
2022-08-08T01:13:17.753Z,16.08
2022-08-08T01:16:40.813Z,16.18
2022-08-08T01:20:03.944Z,16.21
2022-08-08T01:24:02.630Z,16.44
2022-08-08T01:26:35.981Z,16.26
2022-08-08T01:29:35.150Z,16.36
2022-08-08T01:32:58.063Z,16.35
2022-08-08T01:36:03.637Z,16.34
2022-08-08T01:39:23.321Z,16.48
2022-08-08T01:42:04.038Z,16.48
2022-08-08T01:45:00.509Z,16.62
2022-08-08T01:48:16.014Z,16.68
2022-08-08T01:52:51.927Z,16.70
2022-08-08T01:55:26.365Z,16.72
2022-08-08T01:58:10.783Z,16.79
2022-08-08T02:00:48.509Z,16.91
2022-08-08T02:03:56.247Z,16.93
2022-08-08T02:06:44.461Z,16.89
2022-08-08T02:10:02.362Z,17.05
2022-08-08T02:12:27.513Z,17.05
2022-08-08T02:15:05.346Z,17.06
2022-08-08T02:17:53.262Z,17.09
2022-08-08T02:21:01.574Z,17.18
2022-08-08T02:23:32.037Z,17.02
2022-08-08T02:26:10.036Z,17.17
2022-08-08T02:29:00.355Z,17.26
2022-08-08T02:32:01.266Z,17.39
2022-08-08T02:35:07.547Z,17.28
2022-08-08T02:38:09.088Z,17.43
2022-08-08T02:40:50.620Z,17.40
2022-08-08T02:44:42.296Z,17.34
2022-08-08T02:47:17.725Z,17.37
2022-08-08T02:50:36.853Z,17.41
2022-08-08T02:53:32.139Z,17.39
2022-08-08T02:56:43.426Z,17.40
2022-08-08T02:59:57.609Z,17.39
2022-08-08T03:03:12.347Z,17.44
2022-08-08T03:06:24.120Z,17.42
2022-08-08T03:09:45.038Z,17.44
2022-08-08T03:16:48.602Z,17.55
2022-08-08T03:19:51.282Z,17.59
2022-08-08T03:22:51.095Z,17.56
2022-08-08T03:25:18.598Z,17.59
2022-08-08T03:28:00.976Z,17.60
2022-08-08T03:30:35.379Z,17.53
2022-08-08T03:33:55.254Z,17.57
2022-08-08T03:36:20.011Z,17.64
2022-08-08T03:39:14.310Z,17.59
2022-08-08T03:42:28.820Z,17.57
2022-08-08T03:44:40.622Z,17.53
2022-08-08T03:47:22.518Z,17.66
2022-08-08T03:49:57.850Z,17.52
2022-08-08T03:52:35.519Z,17.53
2022-08-08T03:55:56.372Z,17.71
2022-08-08T03:58:31.182Z,17.96
2022-08-08T04:01:23.019Z,18.08
2022-08-08T04:03:57.981Z,18.25
2022-08-08T04:06:30.319Z,18.36
2022-08-08T04:09:10.245Z,18.38
2022-08-08T04:11:48.539Z,18.16
2022-08-08T04:14:38.136Z,18.05
2022-08-08T04:17:22.415Z,18.34
2022-08-08T04:19:59.522Z,18.38
2022-08-08T04:22:33.476Z,18.48
2022-08-08T04:25:05.935Z,18.56
2022-08-08T04:28:01.437Z,18.47
2022-08-08T04:30:29.669Z,18.40
2022-08-08T04:33:07.839Z,18.75
2022-08-08T04:35:39.712Z,18.84
2022-08-08T04:38:11.811Z,19.03
2022-08-08T04:40:54.685Z,19.16
2022-08-08T04:43:31.661Z,19.36
2022-08-08T04:46:19.739Z,19.15
2022-08-08T04:48:52.723Z,19.28
2022-08-08T04:51:28.244Z,19.07
2022-08-08T04:54:38.606Z,19.08
2022-08-08T04:57:00.789Z,19.29
2022-08-08T04:59:30.858Z,19.47
2022-08-08T05:02:02.756Z,19.50
2022-08-08T05:04:34.675Z,19.50
2022-08-08T05:07:04.089Z,19.67
2022-08-08T05:09:36.313Z,19.73
2022-08-08T05:12:09.226Z,19.94
2022-08-08T05:14:40.168Z,20.25
2022-08-08T05:17:12.665Z,20.47
2022-08-08T05:20:09.731Z,20.50
2022-08-08T05:22:37.500Z,20.16
2022-08-08T05:25:08.029Z,20.23
2022-08-08T05:27:41.765Z,20.65
2022-08-08T05:30:15.754Z,20.90
2022-08-08T05:32:49.551Z,20.94
2022-08-08T05:35:24.900Z,21.14
2022-08-08T05:38:01.861Z,20.97
2022-08-08T05:40:49.025Z,20.78
2022-08-08T05:44:02.919Z,20.60
2022-08-08T05:46:17.858Z,21.03
2022-08-08T05:48:52.378Z,21.38
2022-08-08T05:51:27.729Z,21.05
2022-08-08T05:54:28.802Z,21.38
2022-08-08T05:57:15.325Z,21.66
2022-08-08T05:59:59.304Z,21.74
2022-08-08T06:03:04.753Z,21.84
2022-08-08T06:05:46.774Z,21.89
2022-08-08T06:08:32.872Z,22.00
2022-08-08T06:11:07.456Z,22.02
2022-08-08T06:13:47.038Z,21.85
2022-08-08T06:16:19.074Z,22.16
2022-08-08T06:19:27.641Z,22.30
2022-08-08T06:21:58.686Z,22.42
2022-08-08T06:24:40.694Z,22.00
2022-08-08T06:27:31.020Z,22.09
2022-08-08T06:30:05.213Z,22.29
2022-08-08T06:32:53.029Z,22.12
2022-08-08T06:36:06.699Z,22.03
2022-08-08T06:38:20.519Z,22.24
2022-08-08T06:41:05.575Z,22.34
2022-08-08T06:43:37.714Z,22.57
2022-08-08T06:46:16.157Z,22.53
2022-08-08T06:48:49.861Z,22.53
2022-08-08T06:51:22.869Z,22.78
2022-08-08T06:53:57.637Z,22.58
2022-08-08T06:56:37.483Z,22.63
2022-08-08T06:59:12.018Z,22.90
2022-08-08T07:02:16.721Z,22.73
2022-08-08T07:04:45.275Z,23.37
2022-08-08T07:07:35.250Z,23.41
2022-08-08T07:10:12.530Z,23.64
2022-08-08T07:12:48.344Z,23.60
2022-08-08T07:16:03.959Z,23.33
2022-08-08T07:18:40.938Z,23.32
2022-08-08T07:21:18.871Z,23.69
2022-08-08T07:24:03.841Z,23.78
2022-08-08T07:26:55.272Z,24.22
2022-08-08T07:30:02.218Z,24.41
2022-08-08T07:32:22.357Z,24.71
2022-08-08T07:35:01.160Z,24.57
2022-08-08T07:37:55.734Z,24.46
2022-08-08T07:40:35.368Z,24.25
2022-08-08T07:43:12.176Z,24.50
2022-08-08T07:46:05.463Z,24.76
2022-08-08T07:48:37.678Z,24.60
2022-08-08T07:51:23.188Z,24.50
2022-08-08T07:54:08.335Z,24.61
2022-08-08T07:56:50.950Z,24.78
2022-08-08T07:59:25.196Z,24.44
2022-08-08T08:02:35.253Z,24.41
2022-08-08T08:04:52.271Z,24.81
2022-08-08T08:07:32.230Z,24.97
2022-08-08T08:10:13.154Z,25.14
2022-08-08T08:12:54.421Z,25.48
2022-08-08T08:15:32.210Z,25.43
2022-08-08T08:18:06.857Z,25.14
2022-08-08T08:20:45.320Z,26.25
2022-08-08T08:23:15.729Z,25.90
2022-08-08T08:25:52.062Z,26.46
2022-08-08T08:28:27.743Z,26.20
2022-08-08T08:31:04.935Z,26.12
2022-08-08T08:33:37.259Z,26.06
2022-08-08T08:36:19.239Z,26.33
2022-08-08T08:38:53.630Z,26.28
2022-08-08T08:41:35.155Z,26.12
2022-08-08T08:44:13.996Z,26.58
2022-08-08T08:46:47.318Z,26.74
2022-08-08T08:49:22.420Z,26.61
2022-08-08T08:52:00.546Z,26.79
2022-08-08T08:54:34.873Z,27.25
2022-08-08T08:57:15.501Z,27.32
2022-08-08T09:00:01.703Z,27.58
2022-08-08T09:02:41.093Z,27.69
2022-08-08T09:05:48.921Z,28.42
2022-08-08T09:08:12.730Z,27.54
2022-08-08T09:10:48.648Z,28.33
2022-08-08T09:13:28.030Z,28.23
2022-08-08T09:16:03.964Z,28.53
2022-08-08T09:18:39.273Z,28.58
2022-08-08T09:22:01.475Z,28.11
2022-08-08T09:23:59.113Z,27.02
2022-08-08T09:26:40.640Z,26.64
2022-08-08T09:29:24.478Z,26.86
2022-08-08T09:32:01.855Z,26.49
2022-08-08T09:34:42.148Z,26.54
2022-08-08T09:37:58.456Z,26.38
2022-08-08T09:40:21.464Z,25.22
2022-08-08T09:42:56.743Z,25.75
2022-08-08T09:46:01.736Z,26.10
2022-08-08T09:48:35.669Z,25.98
2022-08-08T09:51:07.266Z,26.69
2022-08-08T09:53:58.971Z,26.85
2022-08-08T09:56:40.963Z,27.52
2022-08-08T09:59:57.187Z,27.92
2022-08-08T10:02:15.801Z,29.69
2022-08-08T10:04:48.394Z,28.85
2022-08-08T10:07:25.848Z,28.64
2022-08-08T10:10:00.965Z,28.34
2022-08-08T10:12:54.417Z,28.92
2022-08-08T10:15:29.372Z,29.85
2022-08-08T10:18:11.678Z,29.15
2022-08-08T10:20:58.049Z,28.85
2022-08-08T10:23:46.900Z,28.48
2022-08-08T10:26:29.729Z,28.37
2022-08-08T10:29:05.144Z,28.35
2022-08-08T10:31:54.749Z,29.23
2022-08-08T10:34:27.549Z,27.26
2022-08-08T10:37:00.178Z,28.37
2022-08-08T10:39:43.357Z,28.48
2022-08-08T10:42:21.535Z,28.02
2022-08-08T10:45:02.746Z,28.84
2022-08-08T10:47:43.707Z,28.99
2022-08-08T10:50:15.816Z,29.32
2022-08-08T10:52:45.641Z,28.87
2022-08-08T10:55:39.684Z,28.57
2022-08-08T10:58:11.768Z,28.66
2022-08-08T11:00:53.149Z,29.37
2022-08-08T11:04:00.688Z,29.89
2022-08-08T11:06:33.272Z,30.42
2022-08-08T11:09:15.107Z,31.10
2022-08-08T11:12:05.287Z,31.29
2022-08-08T11:14:57.380Z,33.39
2022-08-08T11:17:58.310Z,31.94
2022-08-08T11:20:23.811Z,32.08
2022-08-08T11:22:58.991Z,32.52
2022-08-08T11:25:46.241Z,31.65
2022-08-08T11:28:25.711Z,32.41
2022-08-08T11:31:00.721Z,30.08
2022-08-08T11:33:49.629Z,31.25
2022-08-08T11:36:23.346Z,31.20
2022-08-08T11:38:58.938Z,30.28
2022-08-08T11:41:32.353Z,30.35
2022-08-08T11:44:05.582Z,29.99
2022-08-08T11:46:36.768Z,29.75
2022-08-08T11:49:09.550Z,29.64
2022-08-08T11:51:49.892Z,29.31
2022-08-08T11:54:33.930Z,29.18
2022-08-08T11:57:14.052Z,29.35
2022-08-08T11:59:58.266Z,29.54
2022-08-08T12:02:54.624Z,30.14
2022-08-08T12:05:34.035Z,30.27
2022-08-08T12:08:04.423Z,29.08
2022-08-08T12:10:34.492Z,28.93
2022-08-08T12:13:07.606Z,28.35
2022-08-08T12:15:49.068Z,27.25
2022-08-08T12:18:21.733Z,27.15
2022-08-08T12:20:56.505Z,26.67
2022-08-08T12:23:43.328Z,25.78
2022-08-08T12:26:27.818Z,25.72
2022-08-08T12:29:21.653Z,25.49
2022-08-08T12:32:09.395Z,24.95
2022-08-08T12:34:44.255Z,25.15
2022-08-08T12:37:20.949Z,25.68
2022-08-08T12:40:00.943Z,26.41
2022-08-08T12:42:47.631Z,27.82
2022-08-08T12:45:58.017Z,26.66
2022-08-08T12:48:37.039Z,26.45
2022-08-08T12:51:11.616Z,26.24
2022-08-08T12:53:58.753Z,25.82
2022-08-08T12:56:35.373Z,25.50
2022-08-08T12:59:16.012Z,25.30
2022-08-08T13:01:53.723Z,25.51
2022-08-08T13:04:26.086Z,25.10
2022-08-08T13:06:58.636Z,24.80
2022-08-08T13:09:43.256Z,24.96
2022-08-08T13:12:30.046Z,24.86
2022-08-08T13:15:02.437Z,25.59
2022-08-08T13:18:09.441Z,25.52
2022-08-08T13:20:27.594Z,25.27
2022-08-08T13:25:58.754Z,26.59
2022-08-08T13:28:32.885Z,26.45
2022-08-08T13:31:03.961Z,26.45
2022-08-08T13:33:42.828Z,26.23
2022-08-08T13:36:14.072Z,26.28
2022-08-08T13:38:43.551Z,25.67
2022-08-08T13:41:16.892Z,24.78
2022-08-08T13:43:49.798Z,24.87
2022-08-08T13:46:26.925Z,24.87
2022-08-08T13:50:33.746Z,24.83
2022-08-08T13:52:01.632Z,24.44
2022-08-08T13:54:33.797Z,23.93
2022-08-08T13:57:11.329Z,24.12
2022-08-08T13:59:47.869Z,23.98
2022-08-08T14:02:33.100Z,24.10
2022-08-08T14:05:20.362Z,23.89
2022-08-08T14:07:59.602Z,24.03
2022-08-08T14:10:33.263Z,23.94
2022-08-08T14:13:31.001Z,24.07
2022-08-08T14:16:16.234Z,23.97
2022-08-08T14:18:54.030Z,24.15
2022-08-08T14:21:32.497Z,23.67
2022-08-08T14:24:10.586Z,23.76
2022-08-08T14:26:45.875Z,23.77
2022-08-08T14:29:27.978Z,23.54
2022-08-08T14:32:10.500Z,23.13
2022-08-08T14:34:43.226Z,23.50
2022-08-08T14:37:17.470Z,23.49
2022-08-08T14:39:53.712Z,23.74
2022-08-08T14:42:35.335Z,23.43
2022-08-08T14:45:10.008Z,23.14
2022-08-08T14:47:52.207Z,23.15
2022-08-08T14:50:38.679Z,22.83
2022-08-08T14:53:13.217Z,22.96
2022-08-08T14:55:45.110Z,23.03
2022-08-08T14:58:16.535Z,22.84
2022-08-08T15:00:52.569Z,22.86
2022-08-08T15:03:23.744Z,22.96
2022-08-08T15:05:58.840Z,23.24
2022-08-08T15:08:35.620Z,23.29
2022-08-08T15:11:11.372Z,23.39
2022-08-08T15:14:00.662Z,23.06
2022-08-08T15:16:34.782Z,23.85
2022-08-08T15:19:05.384Z,24.56
2022-08-08T15:21:42.642Z,25.50
2022-08-08T15:24:14.471Z,27.30
2022-08-08T15:26:52.653Z,29.46
2022-08-08T15:29:24.482Z,28.86
2022-08-08T15:32:19.489Z,28.32
2022-08-08T15:34:44.409Z,27.45
2022-08-08T15:37:14.049Z,29.11
2022-08-08T15:39:43.031Z,30.45
2022-08-08T15:42:32.041Z,31.62
2022-08-08T15:45:02.497Z,31.06
2022-08-08T15:47:33.439Z,30.60
2022-08-08T15:50:03.830Z,28.72
2022-08-08T15:52:37.381Z,29.15
2022-08-08T15:55:10.069Z,29.78
2022-08-08T15:57:40.983Z,29.30
2022-08-08T16:00:26.877Z,29.02
2022-08-08T16:02:59.119Z,27.04
2022-08-08T16:05:35.294Z,26.79
2022-08-08T16:08:09.521Z,27.17
2022-08-08T16:13:03.838Z,26.27
2022-08-08T16:13:43.523Z,26.89
2022-08-08T16:16:18.094Z,27.35
2022-08-08T16:18:53.439Z,28.01
2022-08-08T16:21:28.100Z,27.69
2022-08-08T16:23:59.704Z,27.19
2022-08-08T16:26:34.407Z,26.69
2022-08-08T16:29:09.248Z,25.86
2022-08-08T16:31:50.367Z,25.53
2022-08-08T16:34:24.854Z,25.62
2022-08-08T16:36:54.547Z,25.06
2022-08-08T16:40:01.100Z,24.27
2022-08-08T16:42:18.630Z,23.82
2022-08-08T16:44:55.095Z,23.72
2022-08-08T16:47:40.175Z,23.68
2022-08-08T16:50:15.820Z,23.42
2022-08-08T16:55:06.253Z,23.37
2022-08-08T16:55:53.829Z,23.28
2022-08-08T16:58:29.461Z,23.25
2022-08-08T17:01:09.246Z,23.46
2022-08-08T17:03:58.942Z,23.39
2022-08-08T17:06:36.326Z,23.41
2022-08-08T17:09:07.251Z,23.29
2022-08-08T17:11:48.774Z,23.31
2022-08-08T17:14:33.161Z,23.04
2022-08-08T17:17:41.390Z,22.79
2022-08-08T17:19:56.839Z,22.74
2022-08-08T17:22:39.489Z,22.81
2022-08-08T17:25:12.049Z,22.62
2022-08-08T17:27:47.551Z,22.87
2022-08-08T17:30:27.579Z,22.89
2022-08-08T17:34:48.156Z,22.87
2022-08-08T17:35:55.888Z,22.77
2022-08-08T17:38:38.335Z,22.54
2022-08-08T17:41:10.411Z,22.53
2022-08-08T17:44:00.812Z,22.65
2022-08-08T17:46:40.009Z,22.67
2022-08-08T17:49:13.024Z,22.52
2022-08-08T17:51:51.676Z,22.59
2022-08-08T17:54:22.277Z,22.61
2022-08-08T17:56:55.079Z,22.47
2022-08-08T17:59:34.659Z,22.47
2022-08-08T18:02:11.267Z,22.43
2022-08-08T18:04:50.776Z,22.37
2022-08-08T18:08:03.251Z,22.31
2022-08-08T18:10:09.901Z,22.41
2022-08-08T18:12:38.838Z,22.20
2022-08-08T18:15:09.706Z,22.26
2022-08-08T18:18:09.652Z,22.39
2022-08-08T18:20:36.526Z,22.06
2022-08-08T18:23:14.914Z,21.95
2022-08-08T18:25:46.094Z,21.66
2022-08-08T18:28:15.402Z,21.91
2022-08-08T18:30:52.831Z,21.70
2022-08-08T18:34:12.267Z,21.72
2022-08-08T18:36:18.988Z,21.56
2022-08-08T18:38:52.946Z,21.44
2022-08-08T18:41:51.361Z,21.40
2022-08-08T18:44:12.556Z,21.28
2022-08-08T18:46:54.434Z,21.18
2022-08-08T18:49:32.237Z,21.10
2022-08-08T18:52:18.276Z,20.95
2022-08-08T18:55:00.258Z,20.85
2022-08-08T18:57:43.252Z,20.75
2022-08-08T19:00:20.105Z,20.60
2022-08-08T19:02:55.841Z,20.52
2022-08-08T19:05:37.730Z,20.43
2022-08-08T19:08:23.966Z,20.59
2022-08-08T19:10:55.633Z,20.45
2022-08-08T19:13:25.438Z,20.31
2022-08-08T19:16:18.636Z,20.25
2022-08-08T19:19:00.537Z,20.49
2022-08-08T19:21:48.677Z,20.30
2022-08-08T19:24:54.350Z,20.19
2022-08-08T19:27:10.887Z,20.09
2022-08-08T19:29:46.059Z,20.07
2022-08-08T19:32:19.454Z,19.91
2022-08-08T19:34:52.096Z,19.74
2022-08-08T19:37:42.339Z,19.82
2022-08-08T19:40:16.000Z,19.89
2022-08-08T19:42:47.261Z,19.91
2022-08-08T19:45:57.324Z,19.91
2022-08-08T19:48:28.157Z,19.88
2022-08-08T19:50:56.705Z,19.88
2022-08-08T19:53:53.292Z,19.90
2022-08-08T19:56:39.242Z,19.81
2022-08-08T19:59:08.117Z,19.83
2022-08-08T20:02:01.197Z,19.74
2022-08-08T20:04:27.628Z,19.90
2022-08-08T20:06:57.955Z,20.00
2022-08-08T20:09:34.767Z,19.90
2022-08-08T20:12:14.784Z,19.95
2022-08-08T20:15:02.353Z,19.98
2022-08-08T20:17:45.030Z,19.95
2022-08-08T20:20:19.898Z,19.92
2022-08-08T20:22:53.861Z,19.93
2022-08-08T20:25:29.592Z,19.84
2022-08-08T20:28:06.816Z,19.86
2022-08-08T20:30:52.624Z,19.83
2022-08-08T20:35:58.394Z,19.67
2022-08-08T20:38:36.878Z,19.51
2022-08-08T20:41:12.097Z,19.49
2022-08-08T20:43:50.210Z,19.54
2022-08-08T20:46:25.755Z,19.50
2022-08-08T20:48:58.492Z,19.58
2022-08-08T20:51:32.282Z,19.32
2022-08-08T20:54:14.063Z,19.46
2022-08-08T20:57:04.681Z,19.53
2022-08-08T20:59:41.301Z,19.38
2022-08-08T21:02:12.523Z,19.32
2022-08-08T21:04:43.641Z,19.45
2022-08-08T21:07:47.030Z,19.51
2022-08-08T21:10:13.161Z,19.58
2022-08-08T21:12:48.466Z,19.54
2022-08-08T21:16:05.093Z,19.50
2022-08-08T21:18:19.655Z,19.54
2022-08-08T21:20:50.893Z,19.63
2022-08-08T21:23:25.018Z,19.58
2022-08-08T21:26:10.955Z,19.57
2022-08-08T21:28:46.302Z,19.34
2022-08-08T21:31:21.967Z,19.21
2022-08-08T21:33:54.536Z,19.40
2022-08-08T21:36:28.723Z,19.41
2022-08-08T21:38:59.195Z,19.35
2022-08-08T21:41:42.815Z,19.15
2022-08-08T21:44:20.598Z,19.14
2022-08-08T21:48:07.422Z,19.17
2022-08-08T21:49:43.568Z,19.32
2022-08-08T21:54:31.448Z,19.47
2022-08-08T21:55:24.069Z,19.45
2022-08-08T21:58:04.058Z,19.50
2022-08-08T22:00:37.326Z,19.38
2022-08-08T22:03:15.415Z,19.08
2022-08-08T22:05:48.521Z,19.14
2022-08-08T22:08:24.084Z,19.19
2022-08-08T22:10:54.879Z,19.41
2022-08-08T22:13:24.540Z,19.39
2022-08-08T22:16:07.974Z,19.17
2022-08-08T22:18:39.664Z,19.32
2022-08-08T22:21:14.158Z,19.48
2022-08-08T22:23:51.745Z,19.50
2022-08-08T22:26:28.711Z,19.42
2022-08-08T22:29:13.133Z,19.45
2022-08-08T22:32:01.567Z,19.55
2022-08-08T22:34:32.877Z,19.57
2022-08-08T22:37:03.404Z,19.54
2022-08-08T22:39:45.749Z,19.54
2022-08-08T22:42:27.577Z,19.43
2022-08-08T22:45:01.354Z,19.58
2022-08-08T22:47:37.953Z,19.35
2022-08-08T22:50:26.271Z,19.58
2022-08-08T22:54:27.890Z,19.53
2022-08-08T22:55:59.111Z,19.54
2022-08-08T22:58:34.351Z,19.47
2022-08-08T23:01:26.555Z,19.43
2022-08-08T23:03:55.460Z,19.44
2022-08-08T23:06:27.084Z,19.65
2022-08-08T23:08:58.721Z,19.68
2022-08-08T23:11:30.856Z,19.71
2022-08-08T23:14:20.445Z,19.70
2022-08-08T23:16:57.484Z,19.81
2022-08-08T23:19:30.834Z,19.65
2022-08-08T23:22:04.580Z,19.67
2022-08-08T23:24:36.477Z,19.67
2022-08-08T23:27:07.057Z,19.53
2022-08-08T23:29:36.533Z,19.49
2022-08-08T23:32:07.157Z,19.37
2022-08-08T23:34:49.724Z,19.43
2022-08-08T23:38:02.331Z,19.34
2022-08-08T23:40:22.163Z,19.64
2022-08-08T23:42:52.180Z,19.57
2022-08-08T23:49:02.531Z,19.46
2022-08-08T23:49:05.462Z,19.43
2022-08-08T23:51:00.688Z,19.32
2022-08-08T23:54:05.589Z,19.70
2022-08-08T23:56:23.832Z,19.53
2022-08-08T23:58:53.425Z,19.16
